createdAt,value
2018-05-14T00:02:01.139Z,83.24
2018-05-14T00:04:29.425Z,83.47
2018-05-14T00:06:57.814Z,83.23
2018-05-14T00:09:26.239Z,82.10
2018-05-14T00:11:54.516Z,82.19
2018-05-14T00:14:22.958Z,81.98
2018-05-14T00:16:51.300Z,81.77
2018-05-14T00:19:19.551Z,80.87
2018-05-14T00:21:47.853Z,81.53
2018-05-14T00:24:16.148Z,80.65
2018-05-14T00:26:44.471Z,81.11
2018-05-14T00:29:12.773Z,81.97
2018-05-14T00:31:41.102Z,82.63
2018-05-14T00:34:09.408Z,82.62
2018-05-14T00:36:37.728Z,82.94
2018-05-14T00:39:06.031Z,82.69
2018-05-14T00:41:34.302Z,82.39
2018-05-14T00:44:02.717Z,83.38
2018-05-14T00:46:30.970Z,83.36
2018-05-14T00:48:59.916Z,83.59
2018-05-14T00:51:28.190Z,84.09
2018-05-14T00:53:56.497Z,83.90
2018-05-14T00:56:24.769Z,83.41
2018-05-14T00:58:53.101Z,83.73
2018-05-14T01:01:21.366Z,83.34
2018-05-14T01:03:49.679Z,82.94
2018-05-14T01:06:18.050Z,82.84
2018-05-14T01:08:46.342Z,82.91
2018-05-14T01:11:14.634Z,83.35
2018-05-14T01:13:42.946Z,83.41
2018-05-14T01:16:11.574Z,83.69
2018-05-14T01:18:40.553Z,84.06
2018-05-14T01:21:08.861Z,84.69
2018-05-14T01:23:37.163Z,84.16
2018-05-14T01:26:05.536Z,83.78
2018-05-14T01:28:33.866Z,83.99
2018-05-14T01:31:02.194Z,84.30
2018-05-14T01:33:30.463Z,84.08
2018-05-14T01:35:58.750Z,84.55
2018-05-14T01:38:27.034Z,84.57
2018-05-14T01:40:55.358Z,84.10
2018-05-14T01:43:23.682Z,83.95
2018-05-14T01:45:52.016Z,83.39
2018-05-14T01:48:20.299Z,83.67
2018-05-14T01:50:48.620Z,83.61
2018-05-14T01:53:16.931Z,83.26
2018-05-14T01:55:45.266Z,83.27
2018-05-14T01:58:13.584Z,83.36
2018-05-14T02:00:41.859Z,82.99
2018-05-14T02:03:10.165Z,82.75
2018-05-14T02:05:38.463Z,83.40
2018-05-14T02:08:06.768Z,83.17
2018-05-14T02:10:35.041Z,82.79
2018-05-14T02:13:03.337Z,83.12
2018-05-14T02:15:31.612Z,83.19
2018-05-14T02:17:59.901Z,83.16
2018-05-14T02:20:28.162Z,83.69
2018-05-14T02:22:56.817Z,84.24
2018-05-14T02:25:25.083Z,84.38
2018-05-14T02:27:53.371Z,84.57
2018-05-14T02:30:21.690Z,84.28
2018-05-14T02:32:49.999Z,83.88
2018-05-14T02:35:18.284Z,83.72
2018-05-14T02:37:46.597Z,84.00
2018-05-14T02:40:14.869Z,83.92
2018-05-14T02:42:43.150Z,84.12
2018-05-14T02:45:11.609Z,83.30
2018-05-14T02:47:39.885Z,83.14
2018-05-14T02:50:08.390Z,83.29
2018-05-14T02:52:36.667Z,83.39
2018-05-14T02:55:05.727Z,83.20
2018-05-14T02:57:34.025Z,83.10
2018-05-14T03:00:02.326Z,82.87
2018-05-14T03:02:30.593Z,82.57
2018-05-14T03:04:58.957Z,82.48
2018-05-14T03:07:27.134Z,81.71
2018-05-14T03:09:55.418Z,81.79
2018-05-14T03:12:23.687Z,82.04
2018-05-14T03:14:51.974Z,82.64
2018-05-14T03:17:20.251Z,82.60
2018-05-14T03:19:48.546Z,82.46
2018-05-14T03:22:17.596Z,82.69
2018-05-14T03:24:45.944Z,82.82
2018-05-14T03:27:14.205Z,82.81
2018-05-14T03:29:42.555Z,82.87
2018-05-14T03:32:10.876Z,82.43
2018-05-14T03:34:39.200Z,83.07
2018-05-14T03:37:07.482Z,83.47
2018-05-14T03:39:35.769Z,83.55
2018-05-14T03:42:04.818Z,83.76
2018-05-14T03:44:33.122Z,83.20
2018-05-14T03:47:01.410Z,82.83
2018-05-14T03:49:29.696Z,82.87
2018-05-14T03:51:58.049Z,82.62
2018-05-14T03:54:26.315Z,82.29
2018-05-14T03:56:54.666Z,81.74
2018-05-14T03:59:34.766Z,81.27
2018-05-14T04:02:23.657Z,81.95
2018-05-14T04:05:03.762Z,81.73
2018-05-14T04:07:32.059Z,82.10
2018-05-14T04:10:00.348Z,83.08
2018-05-14T04:12:30.052Z,82.83
2018-05-14T04:14:58.328Z,83.06
2018-05-14T04:17:26.633Z,82.66
2018-05-14T04:19:54.913Z,82.09
2018-05-14T04:22:23.471Z,81.69
2018-05-14T04:24:51.902Z,82.22
2018-05-14T04:27:20.235Z,82.50
2018-05-14T04:29:48.734Z,82.18
2018-05-14T04:32:17.026Z,82.59
2018-05-14T04:34:52.184Z,82.49
2018-05-14T04:37:22.574Z,82.17
2018-05-14T04:39:50.812Z,82.12
2018-05-14T04:42:19.123Z,82.02
2018-05-14T04:44:47.418Z,81.91
2018-05-14T04:47:15.695Z,81.69
2018-05-14T04:49:44.625Z,81.17
2018-05-14T04:52:12.925Z,81.32
2018-05-14T04:54:41.271Z,81.32
2018-05-14T04:57:09.718Z,81.59
2018-05-14T04:59:38.034Z,81.52
2018-05-14T05:02:06.302Z,82.16
2018-05-14T05:04:35.393Z,82.26
2018-05-14T05:07:03.969Z,81.87
2018-05-14T05:09:32.303Z,81.77
2018-05-14T05:12:01.577Z,81.01
2018-05-14T05:14:29.894Z,81.06
2018-05-14T05:16:58.242Z,80.83
2018-05-14T05:19:26.579Z,81.34
2018-05-14T05:21:54.890Z,81.53
2018-05-14T05:24:23.262Z,81.62
2018-05-14T05:26:51.601Z,81.52
2018-05-14T05:29:19.866Z,81.04
2018-05-14T05:31:48.173Z,81.43
2018-05-14T05:34:16.443Z,81.54
2018-05-14T05:36:44.802Z,81.41
2018-05-14T05:39:14.050Z,81.20
2018-05-14T05:41:42.346Z,80.87
2018-05-14T05:44:10.622Z,81.04
2018-05-14T05:46:38.997Z,81.13
2018-05-14T05:49:07.245Z,81.29
2018-05-14T05:51:35.593Z,81.34
2018-05-14T05:54:04.686Z,81.09
2018-05-14T05:56:32.965Z,81.69
2018-05-14T05:59:01.238Z,81.72
2018-05-14T06:01:29.558Z,81.92
2018-05-14T06:03:57.883Z,82.10
2018-05-14T06:06:26.170Z,81.77
2018-05-14T06:08:54.488Z,81.43
2018-05-14T06:11:22.817Z,81.19
2018-05-14T06:13:51.192Z,81.47
2018-05-14T06:16:19.818Z,81.59
2018-05-14T06:18:48.157Z,81.17
2018-05-14T06:21:16.437Z,81.59
2018-05-14T06:23:44.755Z,81.85
2018-05-14T06:26:13.053Z,81.49
2018-05-14T06:28:41.575Z,81.18
2018-05-14T06:31:09.867Z,81.27
2018-05-14T06:33:38.202Z,81.17
2018-05-14T06:36:06.739Z,81.05
2018-05-14T06:38:34.939Z,80.79
2018-05-14T06:41:04.228Z,80.23
2018-05-14T06:43:32.859Z,80.35
2018-05-14T06:46:01.150Z,80.40
2018-05-14T06:48:29.486Z,80.11
2018-05-14T06:50:58.011Z,80.55
2018-05-14T06:53:28.188Z,80.94
2018-05-14T06:55:56.494Z,80.76
2018-05-14T06:58:25.709Z,80.33
2018-05-14T07:00:54.031Z,80.77
2018-05-14T07:03:22.289Z,80.81
2018-05-14T07:05:50.631Z,80.84
2018-05-14T07:08:18.959Z,80.98
2018-05-14T07:10:47.301Z,80.32
2018-05-14T07:13:15.631Z,80.57
2018-05-14T07:15:43.931Z,79.88
2018-05-14T07:18:13.072Z,79.46
2018-05-14T07:20:43.351Z,79.15
2018-05-14T07:23:13.002Z,79.28
2018-05-14T07:25:41.314Z,78.54
2018-05-14T07:28:09.668Z,78.43
2018-05-14T07:30:38.031Z,78.40
2018-05-14T07:33:06.574Z,78.12
2018-05-14T07:35:34.902Z,78.16
2018-05-14T07:38:03.276Z,78.24
2018-05-14T07:40:31.700Z,78.05
2018-05-14T07:43:00.168Z,78.07
2018-05-14T07:45:28.980Z,78.52
2018-05-14T07:47:57.280Z,78.45
2018-05-14T07:50:25.546Z,78.77
2018-05-14T07:52:53.862Z,78.78
2018-05-14T07:55:22.141Z,78.69
2018-05-14T07:57:50.450Z,78.27
2018-05-14T08:00:18.730Z,78.38
2018-05-14T08:02:47.054Z,78.09
2018-05-14T08:05:15.354Z,77.77
2018-05-14T08:07:43.655Z,77.63
2018-05-14T08:10:12.718Z,76.99
2018-05-14T08:12:41.026Z,76.61
2018-05-14T08:15:11.426Z,76.55
2018-05-14T08:17:39.895Z,76.26
2018-05-14T08:20:08.236Z,77.60
2018-05-14T08:22:36.503Z,78.04
2018-05-14T08:25:04.915Z,78.05
2018-05-14T08:27:33.362Z,78.20
2018-05-14T08:30:01.671Z,77.65
2018-05-14T08:32:29.951Z,77.24
2018-05-14T08:34:58.354Z,75.83
2018-05-14T08:37:26.630Z,75.12
2018-05-14T08:39:55.112Z,75.44
2018-05-14T08:42:23.396Z,75.25
2018-05-14T08:44:51.670Z,75.93
2018-05-14T08:47:19.976Z,76.33
2018-05-14T08:49:48.272Z,76.09
2018-05-14T08:52:16.572Z,76.51
2018-05-14T08:54:44.914Z,76.16
2018-05-14T08:57:13.152Z,76.16
2018-05-14T08:59:41.827Z,76.87
2018-05-14T09:02:10.110Z,75.35
2018-05-14T09:04:38.398Z,75.46
2018-05-14T09:07:06.739Z,75.08
2018-05-14T09:09:35.022Z,75.43
2018-05-14T09:12:03.418Z,75.30
2018-05-14T09:14:31.683Z,75.04
2018-05-14T09:17:00.951Z,74.39
2018-05-14T09:19:29.278Z,73.99
2018-05-14T09:21:57.549Z,73.33
2018-05-14T09:24:25.818Z,74.42
2018-05-14T09:26:54.208Z,73.99
2018-05-14T09:29:22.525Z,73.44
2018-05-14T09:31:50.866Z,72.47
2018-05-14T09:34:19.158Z,71.82
2018-05-14T09:36:47.480Z,71.40
2018-05-14T09:39:15.802Z,71.19
2018-05-14T09:41:44.085Z,70.80
2018-05-14T09:44:12.902Z,71.00
2018-05-14T09:46:41.777Z,71.17
2018-05-14T09:49:10.097Z,70.58
2018-05-14T09:51:38.424Z,71.09
2018-05-14T09:54:06.737Z,71.27
2018-05-14T09:56:35.006Z,71.08
2018-05-14T09:59:03.303Z,71.68
2018-05-14T10:01:31.605Z,72.50
2018-05-14T10:03:59.923Z,72.17
2018-05-14T10:06:28.189Z,71.95
2018-05-14T10:08:56.486Z,71.18
2018-05-14T10:11:24.819Z,71.38
2018-05-14T10:13:53.300Z,71.42
2018-05-14T10:16:21.608Z,72.09
2018-05-14T10:18:50.074Z,71.88
2018-05-14T10:21:18.222Z,71.93
2018-05-14T10:23:46.554Z,71.95
2018-05-14T10:26:14.847Z,71.46
2018-05-14T10:28:43.135Z,71.47
2018-05-14T10:31:11.501Z,71.39
2018-05-14T10:33:39.782Z,71.47
2018-05-14T10:36:08.097Z,71.25
2018-05-14T10:38:36.502Z,70.81
2018-05-14T10:41:06.600Z,70.84
2018-05-14T10:43:34.924Z,70.39
2018-05-14T10:46:03.329Z,70.42
2018-05-14T10:48:31.708Z,70.24
2018-05-14T10:51:00.030Z,70.63
2018-05-14T10:53:28.311Z,69.88
2018-05-14T10:55:56.664Z,69.04
2018-05-14T10:58:24.967Z,68.85
2018-05-14T11:00:53.257Z,67.86
2018-05-14T11:03:23.723Z,69.05
2018-05-14T11:05:52.071Z,69.62
2018-05-14T11:08:21.071Z,69.69
2018-05-14T11:10:49.374Z,70.33
2018-05-14T11:13:17.653Z,70.95
2018-05-14T11:15:45.941Z,70.72
2018-05-14T11:18:14.278Z,70.26
2018-05-14T11:20:42.575Z,70.28
2018-05-14T11:23:11.081Z,70.59
2018-05-14T11:25:39.326Z,70.77
2018-05-14T11:28:07.619Z,70.12
2018-05-14T11:30:35.996Z,70.68
2018-05-14T11:33:04.298Z,70.74
2018-05-14T11:35:32.578Z,71.91
2018-05-14T11:38:01.052Z,71.89
2018-05-14T11:40:29.321Z,72.30
2018-05-14T11:42:57.662Z,71.66
2018-05-14T11:45:25.963Z,73.17
2018-05-14T11:47:54.315Z,72.46
2018-05-14T11:50:22.605Z,72.62
2018-05-14T11:52:50.898Z,71.93
2018-05-14T11:55:19.236Z,71.91
2018-05-14T11:57:47.519Z,71.12
2018-05-14T12:00:15.814Z,71.09
2018-05-14T12:02:44.375Z,70.57
2018-05-14T12:05:13.579Z,71.18
2018-05-14T12:07:41.849Z,71.69
2018-05-14T12:10:10.259Z,72.64
2018-05-14T12:12:38.453Z,73.00
2018-05-14T12:15:06.762Z,73.58
2018-05-14T12:17:35.073Z,72.64
2018-05-14T12:20:04.086Z,72.18
2018-05-14T12:22:32.423Z,72.39
2018-05-14T12:25:02.009Z,72.53
2018-05-14T12:27:31.102Z,72.22
2018-05-14T12:29:59.377Z,72.67
2018-05-14T12:32:27.707Z,72.47
2018-05-14T12:34:56.007Z,71.89
2018-05-14T12:37:24.367Z,72.42
2018-05-14T12:39:52.626Z,71.71
2018-05-14T12:42:20.951Z,71.69
2018-05-14T12:44:49.287Z,71.82
2018-05-14T12:47:17.573Z,72.51
2018-05-14T12:49:45.933Z,72.64
2018-05-14T12:52:14.315Z,73.02
2018-05-14T12:54:42.615Z,72.96
2018-05-14T12:57:10.971Z,71.91
2018-05-14T12:59:39.220Z,72.06
2018-05-14T13:02:07.539Z,71.83
2018-05-14T13:04:35.917Z,71.93
2018-05-14T13:07:04.227Z,71.52
2018-05-14T13:09:32.576Z,70.67
2018-05-14T13:12:01.044Z,70.10
2018-05-14T13:14:29.338Z,69.14
2018-05-14T13:16:57.609Z,67.88
2018-05-14T13:19:26.025Z,67.10
2018-05-14T13:21:54.354Z,66.47
2018-05-14T13:24:22.657Z,65.82
2018-05-14T13:26:50.992Z,64.66
2018-05-14T13:29:19.268Z,64.35
2018-05-14T13:31:47.694Z,63.26
2018-05-14T13:34:16.019Z,62.07
2018-05-14T13:36:44.295Z,61.88
2018-05-14T13:39:12.610Z,61.96
2018-05-14T13:41:40.886Z,61.03
2018-05-14T13:44:09.567Z,59.97
2018-05-14T13:46:37.843Z,59.47
2018-05-14T13:49:06.947Z,59.38
2018-05-14T13:51:35.233Z,57.01
2018-05-14T13:54:04.191Z,56.91
2018-05-14T13:56:32.600Z,55.35
2018-05-14T13:59:00.876Z,55.67
2018-05-14T14:01:29.229Z,56.29
2018-05-14T14:03:58.571Z,56.19
2018-05-14T14:06:27.478Z,56.08
2018-05-14T14:08:55.771Z,55.57
2018-05-14T14:11:24.107Z,56.16
2018-05-14T14:13:52.840Z,56.80
2018-05-14T14:16:21.141Z,56.53
2018-05-14T14:18:49.487Z,57.88
2018-05-14T14:21:17.863Z,58.15
2018-05-14T14:23:46.380Z,59.29
2018-05-14T14:26:14.468Z,57.96
2018-05-14T14:28:42.761Z,57.08
2018-05-14T14:31:11.043Z,56.05
2018-05-14T14:33:39.426Z,56.35
2018-05-14T14:36:08.690Z,56.50
2018-05-14T14:38:36.962Z,55.00
2018-05-14T14:41:05.322Z,55.76
2018-05-14T14:43:34.058Z,55.24
2018-05-14T14:46:02.396Z,54.38
2018-05-14T14:48:30.907Z,53.13
2018-05-14T14:50:59.331Z,53.53
2018-05-14T14:53:27.683Z,54.17
2018-05-14T14:55:55.986Z,53.48
2018-05-14T14:58:24.334Z,53.40
2018-05-14T15:00:52.736Z,52.87
2018-05-14T15:03:21.019Z,52.27
2018-05-14T15:05:49.336Z,52.16
2018-05-14T15:08:17.647Z,51.21
2018-05-14T15:10:45.973Z,50.19
2018-05-14T15:13:14.297Z,49.25
2018-05-14T15:15:42.597Z,51.17
2018-05-14T15:18:11.099Z,51.17
2018-05-14T15:20:39.560Z,51.19
2018-05-14T15:23:07.866Z,51.02
2018-05-14T15:25:36.251Z,48.98
2018-05-14T15:28:04.781Z,47.67
2018-05-14T15:30:33.109Z,48.40
2018-05-14T15:33:02.153Z,50.60
2018-05-14T15:35:30.451Z,52.28
2018-05-14T15:37:59.321Z,52.13
2018-05-14T15:40:27.683Z,54.68
2018-05-14T15:42:55.996Z,55.92
2018-05-14T15:45:24.309Z,56.29
2018-05-14T15:47:52.661Z,55.56
2018-05-14T15:50:21.264Z,55.95
2018-05-14T15:52:49.535Z,56.00
2018-05-14T15:55:17.986Z,56.48
2018-05-14T15:57:46.285Z,55.94
2018-05-14T16:00:14.707Z,55.21
2018-05-14T16:02:46.199Z,56.47
2018-05-14T16:05:15.632Z,57.18
2018-05-14T16:07:45.283Z,57.69
2018-05-14T16:10:15.622Z,56.62
2018-05-14T16:12:45.999Z,56.96
2018-05-14T16:15:16.454Z,57.46
2018-05-14T16:17:48.012Z,58.76
2018-05-14T16:20:17.963Z,58.54
2018-05-14T16:22:47.205Z,58.54
2018-05-14T16:25:15.635Z,58.58
2018-05-14T16:27:44.122Z,58.64
2018-05-14T16:30:12.430Z,58.77
2018-05-14T16:32:40.770Z,58.89
2018-05-14T16:35:09.105Z,59.30
2018-05-14T16:37:37.515Z,59.71
2018-05-14T16:40:05.844Z,59.95
2018-05-14T16:42:34.297Z,59.90
2018-05-14T16:45:02.567Z,60.21
2018-05-14T16:47:31.321Z,60.19
2018-05-14T16:49:59.762Z,59.79
2018-05-14T16:52:28.103Z,59.50
2018-05-14T16:54:56.370Z,59.76
2018-05-14T16:57:24.827Z,59.73
2018-05-14T16:59:53.818Z,59.97
2018-05-14T17:02:24.252Z,60.52
2018-05-14T17:04:52.814Z,61.20
2018-05-14T17:07:21.270Z,61.03
2018-05-14T17:09:51.544Z,61.11
2018-05-14T17:12:20.023Z,62.52
2018-05-14T17:14:48.344Z,63.37
2018-05-14T17:17:22.321Z,63.90
2018-05-14T17:19:51.087Z,63.70
2018-05-14T17:22:19.440Z,63.82
2018-05-14T17:24:48.011Z,63.97
2018-05-14T17:27:16.410Z,64.45
2018-05-14T17:29:44.996Z,63.92
2018-05-14T17:32:25.373Z,64.61
2018-05-14T17:34:54.348Z,64.92
2018-05-14T17:37:26.414Z,64.95
2018-05-14T17:39:58.273Z,65.20
2018-05-14T17:42:27.707Z,65.36
2018-05-14T17:44:56.926Z,65.38
2018-05-14T17:47:25.361Z,65.66
2018-05-14T17:49:53.972Z,67.08
2018-05-14T17:52:22.252Z,68.62
2018-05-14T17:54:50.568Z,69.91
2018-05-14T17:57:18.987Z,67.46
2018-05-14T17:59:47.318Z,68.69
2018-05-14T18:02:15.629Z,70.63
2018-05-14T18:04:44.014Z,68.24
2018-05-14T18:07:12.378Z,68.54
2018-05-14T18:09:41.515Z,68.39
2018-05-14T18:12:10.190Z,68.14
2018-05-14T18:14:38.507Z,69.54
2018-05-14T18:17:06.846Z,69.56
2018-05-14T18:19:40.729Z,68.15
2018-05-14T18:22:13.321Z,67.36
2018-05-14T18:24:47.106Z,66.80
2018-05-14T18:27:20.994Z,66.04
2018-05-14T18:29:55.207Z,66.16
2018-05-14T18:32:23.911Z,64.44
2018-05-14T18:34:56.186Z,66.68
2018-05-14T18:37:24.674Z,68.42
2018-05-14T18:39:53.054Z,69.71
2018-05-14T18:42:21.605Z,69.54
2018-05-14T18:44:49.921Z,69.89
2018-05-14T18:47:18.290Z,70.11
2018-05-14T18:49:46.726Z,68.84
2018-05-14T18:52:15.023Z,68.66
2018-05-14T18:54:43.545Z,69.16
2018-05-14T18:57:11.919Z,70.22
2018-05-14T18:59:40.911Z,70.36
2018-05-14T19:02:09.262Z,71.55
2018-05-14T19:04:37.578Z,72.35
2018-05-14T19:07:05.879Z,72.38
2018-05-14T19:09:34.212Z,73.03
2018-05-14T19:12:02.599Z,73.33
2018-05-14T19:14:30.900Z,73.41
2018-05-14T19:17:04.780Z,73.30
2018-05-14T19:19:33.088Z,73.64
2018-05-14T19:22:01.435Z,73.58
2018-05-14T19:24:29.746Z,73.20
2018-05-14T19:26:58.023Z,73.38
2018-05-14T19:29:31.959Z,73.55
2018-05-14T19:32:00.373Z,72.94
2018-05-14T19:34:34.476Z,75.54
2018-05-14T19:37:02.778Z,75.85
2018-05-14T19:39:36.603Z,77.05
2018-05-14T19:42:04.886Z,77.90
2018-05-14T19:44:33.202Z,77.11
2018-05-14T19:47:01.609Z,75.66
2018-05-14T19:49:29.914Z,75.38
2018-05-14T19:51:58.215Z,74.75
2018-05-14T19:54:26.522Z,73.75
2018-05-14T19:56:54.816Z,73.04
2018-05-14T19:59:23.135Z,72.87
2018-05-14T20:01:51.410Z,72.56
2018-05-14T20:04:19.741Z,72.17
2018-05-14T20:06:48.117Z,72.18
2018-05-14T20:09:16.363Z,72.17
2018-05-14T20:11:44.727Z,72.36
2018-05-14T20:14:12.983Z,73.28
2018-05-14T20:16:41.275Z,73.44
2018-05-14T20:19:09.595Z,73.41
2018-05-14T20:21:37.925Z,73.95
2018-05-14T20:24:06.215Z,74.75
2018-05-14T20:26:36.640Z,75.05
2018-05-14T20:29:05.553Z,75.35
2018-05-14T20:31:34.395Z,75.62
2018-05-14T20:34:03.162Z,75.74
2018-05-14T20:36:31.472Z,75.91
2018-05-14T20:38:59.759Z,75.94
2018-05-14T20:41:28.396Z,76.23
2018-05-14T20:43:56.974Z,75.93
2018-05-14T20:46:26.050Z,76.25
2018-05-14T20:48:54.456Z,75.60
2018-05-14T20:51:22.861Z,76.10
2018-05-14T20:53:51.410Z,76.47
2018-05-14T20:56:20.444Z,76.82
2018-05-14T20:58:48.706Z,76.85
2018-05-14T21:01:17.150Z,77.22
2018-05-14T21:03:45.519Z,77.19
2018-05-14T21:06:13.833Z,76.81
2018-05-14T21:08:42.130Z,77.00
2018-05-14T21:11:12.202Z,77.28
2018-05-14T21:13:40.544Z,77.17
2018-05-14T21:16:08.821Z,77.08
2018-05-14T21:18:37.111Z,77.38
2018-05-14T21:21:05.392Z,77.07
2018-05-14T21:23:33.763Z,76.83
2018-05-14T21:26:02.056Z,76.55
2018-05-14T21:28:30.389Z,76.13
2018-05-14T21:30:59.127Z,76.11
2018-05-14T21:33:27.426Z,75.98
2018-05-14T21:35:55.731Z,75.95
2018-05-14T21:38:24.046Z,76.02
2018-05-14T21:40:52.840Z,75.66
2018-05-14T21:43:21.179Z,76.02
2018-05-14T21:45:49.489Z,76.29
2018-05-14T21:48:18.594Z,76.16
2018-05-14T21:50:46.883Z,76.58
2018-05-14T21:53:16.542Z,76.88
2018-05-14T21:55:44.872Z,77.17
2018-05-14T21:58:13.149Z,76.90
2018-05-14T22:00:42.299Z,76.85
2018-05-14T22:03:11.920Z,77.04
2018-05-14T22:05:50.957Z,77.42
2018-05-14T22:08:19.243Z,77.75
2018-05-14T22:10:47.703Z,77.67
2018-05-14T22:13:15.991Z,78.08
2018-05-14T22:15:46.004Z,78.09
2018-05-14T22:18:14.376Z,78.31
2018-05-14T22:20:42.756Z,78.80
2018-05-14T22:23:13.194Z,78.89
2018-05-14T22:25:41.686Z,79.11
2018-05-14T22:28:10.033Z,79.29
2018-05-14T22:30:38.525Z,79.17
2018-05-14T22:33:06.818Z,79.36
2018-05-14T22:35:35.122Z,79.50
2018-05-14T22:38:04.476Z,79.73
2018-05-14T22:40:32.853Z,79.50
2018-05-14T22:43:02.459Z,79.43
2018-05-14T22:45:31.523Z,79.36
2018-05-14T22:47:59.804Z,79.44
2018-05-14T22:50:28.476Z,79.01
2018-05-14T22:52:56.938Z,78.87
2018-05-14T22:55:25.254Z,78.59
2018-05-14T22:57:53.554Z,78.60
2018-05-14T23:00:27.580Z,78.54
2018-05-14T23:02:56.210Z,78.22
2018-05-14T23:05:24.506Z,78.44
2018-05-14T23:07:52.835Z,78.47
2018-05-14T23:10:21.172Z,78.68
2018-05-14T23:12:49.483Z,78.73
2018-05-14T23:15:17.773Z,78.65
2018-05-14T23:17:46.099Z,78.65
2018-05-14T23:20:14.352Z,78.72
2018-05-14T23:22:42.696Z,78.65
2018-05-14T23:25:11.062Z,78.79
2018-05-14T23:27:39.354Z,78.89
2018-05-14T23:30:07.628Z,79.18
2018-05-14T23:32:35.983Z,79.87
2018-05-14T23:35:05.191Z,80.59
2018-05-14T23:37:33.490Z,81.13
2018-05-14T23:40:01.778Z,80.97
2018-05-14T23:42:30.092Z,81.23
2018-05-14T23:44:58.366Z,81.71
2018-05-14T23:47:26.637Z,81.95
2018-05-14T23:49:54.976Z,81.83
2018-05-14T23:52:23.314Z,81.71
2018-05-14T23:54:51.620Z,81.49
2018-05-14T23:57:19.903Z,80.83
2018-05-14T23:59:48.211Z,80.81
